createdAt,value
2023-01-13T00:00:41.993Z,10.20
2023-01-13T00:01:41.922Z,10.20
2023-01-13T00:02:41.962Z,10.20
2023-01-13T00:03:41.907Z,10.20
2023-01-13T00:04:41.928Z,10.18
2023-01-13T00:05:41.866Z,10.17
2023-01-13T00:06:41.859Z,10.16
2023-01-13T00:07:41.835Z,10.16
2023-01-13T00:08:41.838Z,10.13
2023-01-13T00:09:41.804Z,10.14
2023-01-13T00:10:41.788Z,10.14
2023-01-13T00:11:41.775Z,10.14
2023-01-13T00:12:41.767Z,10.13
2023-01-13T00:13:41.774Z,10.14
2023-01-13T00:14:41.743Z,10.11
2023-01-13T00:15:41.764Z,10.10
2023-01-13T00:16:41.716Z,10.11
2023-01-13T00:17:41.710Z,10.10
2023-01-13T00:18:41.706Z,10.09
2023-01-13T00:19:41.690Z,10.09
2023-01-13T00:20:41.677Z,10.09
2023-01-13T00:21:41.658Z,10.07
2023-01-13T00:22:41.647Z,10.06
2023-01-13T00:23:41.632Z,10.06
2023-01-13T00:24:41.607Z,10.04
2023-01-13T00:25:41.601Z,10.04
2023-01-13T00:26:41.603Z,10.04
2023-01-13T00:27:41.584Z,10.02
2023-01-13T00:28:41.599Z,10.02
2023-01-13T00:29:41.544Z,10.01
2023-01-13T00:30:41.542Z,10.02
2023-01-13T00:31:41.529Z,10.02
2023-01-13T00:32:41.526Z,10.02
2023-01-13T00:33:41.515Z,10.01
2023-01-13T00:34:41.472Z,10.01
2023-01-13T00:35:41.471Z,9.99
2023-01-13T00:36:41.453Z,9.99
2023-01-13T00:37:41.451Z,9.98
2023-01-13T00:38:41.452Z,9.99
2023-01-13T00:39:41.417Z,9.96
2023-01-13T00:40:41.422Z,9.96
2023-01-13T00:41:41.382Z,9.95
2023-01-13T00:42:41.373Z,9.95
2023-01-13T00:43:41.414Z,9.95
2023-01-13T00:44:41.339Z,9.93
2023-01-13T00:45:41.353Z,9.92
2023-01-13T00:46:41.395Z,9.93
2023-01-13T00:47:41.319Z,9.93
2023-01-13T00:48:41.330Z,9.92
2023-01-13T00:49:41.291Z,9.91
2023-01-13T00:50:41.293Z,9.91
2023-01-13T00:51:41.251Z,9.89
2023-01-13T00:52:42.250Z,9.89
2023-01-13T00:53:41.242Z,9.89
2023-01-13T00:54:41.221Z,9.88
2023-01-13T00:55:41.200Z,9.88
2023-01-13T00:56:41.552Z,9.86
2023-01-13T00:57:41.173Z,9.86
2023-01-13T00:58:41.166Z,9.86
2023-01-13T00:59:41.147Z,9.86
2023-01-13T01:00:41.156Z,9.86
2023-01-13T01:01:41.335Z,9.86
2023-01-13T01:02:41.144Z,9.88
2023-01-13T01:03:41.111Z,9.86
2023-01-13T01:04:41.088Z,9.86
2023-01-13T01:05:41.069Z,9.88
2023-01-13T01:06:41.073Z,9.89
2023-01-13T01:07:41.048Z,9.91
2023-01-13T01:08:41.049Z,9.91
2023-01-13T01:09:41.017Z,9.92
2023-01-13T01:10:41.004Z,9.93
2023-01-13T01:11:40.987Z,9.91
2023-01-13T01:12:40.989Z,9.91
2023-01-13T01:13:40.977Z,9.91
2023-01-13T01:14:40.945Z,9.89
2023-01-13T01:15:40.935Z,9.89
2023-01-13T01:16:40.928Z,9.91
2023-01-13T01:17:40.916Z,9.92
2023-01-13T01:18:40.913Z,9.92
2023-01-13T01:19:40.874Z,9.92
2023-01-13T01:20:40.893Z,9.93
2023-01-13T01:21:40.860Z,9.93
2023-01-13T01:22:40.845Z,9.95
2023-01-13T01:23:40.851Z,9.95
2023-01-13T01:24:40.833Z,9.96
2023-01-13T01:25:40.805Z,9.96
2023-01-13T01:26:40.785Z,9.96
2023-01-13T01:27:40.789Z,9.96
2023-01-13T01:28:40.779Z,9.96
2023-01-13T01:29:40.763Z,9.96
2023-01-13T01:30:40.739Z,9.99
2023-01-13T01:31:40.794Z,9.98
2023-01-13T01:32:40.717Z,9.98
2023-01-13T01:33:40.707Z,9.99
2023-01-13T01:34:40.685Z,9.98
2023-01-13T01:35:40.676Z,9.99
2023-01-13T01:36:40.658Z,9.99
2023-01-13T01:37:40.644Z,9.99
2023-01-13T01:38:40.647Z,10.01
2023-01-13T01:39:40.628Z,10.01
2023-01-13T01:40:40.607Z,10.02
2023-01-13T01:41:40.593Z,10.04
2023-01-13T01:42:40.574Z,10.06
2023-01-13T01:43:40.583Z,10.09
2023-01-13T01:44:40.554Z,10.10
2023-01-13T01:45:40.538Z,10.07
2023-01-13T01:46:40.604Z,10.09
2023-01-13T01:47:40.512Z,10.13
2023-01-13T01:48:40.511Z,10.11
2023-01-13T01:49:40.509Z,10.13
2023-01-13T01:50:40.482Z,10.13
2023-01-13T01:51:40.463Z,10.14
2023-01-13T01:52:40.456Z,10.16
2023-01-13T01:53:40.455Z,10.17
2023-01-13T01:54:40.422Z,10.18
2023-01-13T01:55:40.425Z,10.17
2023-01-13T01:56:40.401Z,10.18
2023-01-13T01:57:40.390Z,10.20
2023-01-13T01:58:40.381Z,10.20
2023-01-13T01:59:40.367Z,10.22
2023-01-13T02:00:40.395Z,10.20
2023-01-13T02:01:40.416Z,10.22
2023-01-13T02:02:40.391Z,10.22
2023-01-13T02:03:40.329Z,10.22
2023-01-13T02:04:40.303Z,10.24
2023-01-13T02:05:40.273Z,10.22
2023-01-13T02:06:40.280Z,10.24
2023-01-13T02:07:40.255Z,10.24
2023-01-13T02:08:40.259Z,10.24
2023-01-13T02:09:40.228Z,10.24
2023-01-13T02:10:40.222Z,10.25
2023-01-13T02:11:40.198Z,10.25
2023-01-13T02:12:40.190Z,10.26
2023-01-13T02:13:40.192Z,10.26
2023-01-13T02:14:40.178Z,10.26
2023-01-13T02:15:40.140Z,10.28
2023-01-13T02:16:40.262Z,10.28
2023-01-13T02:17:40.119Z,10.29
2023-01-13T02:18:40.116Z,10.29
2023-01-13T02:19:40.090Z,10.29
2023-01-13T02:20:40.068Z,10.31
2023-01-13T02:21:40.060Z,10.29
2023-01-13T02:22:40.061Z,10.31
2023-01-13T02:23:40.060Z,10.31
2023-01-13T02:24:40.032Z,10.31
2023-01-13T02:25:40.024Z,10.32
2023-01-13T02:26:40.010Z,10.31
2023-01-13T02:27:39.988Z,10.32
2023-01-13T02:28:40.001Z,10.32
2023-01-13T02:29:39.955Z,10.35
2023-01-13T02:30:39.950Z,10.35
2023-01-13T02:31:39.978Z,10.36
2023-01-13T02:32:39.918Z,10.36
2023-01-13T02:33:39.927Z,10.35
2023-01-13T02:34:39.895Z,10.35
2023-01-13T02:35:39.881Z,10.35
2023-01-13T02:36:39.873Z,10.34
2023-01-13T02:37:39.851Z,10.35
2023-01-13T02:38:39.846Z,10.35
2023-01-13T02:39:39.837Z,10.35
2023-01-13T02:40:39.822Z,10.35
2023-01-13T02:41:39.808Z,10.35
2023-01-13T02:42:39.797Z,10.35
2023-01-13T02:43:39.792Z,10.36
2023-01-13T02:44:39.765Z,10.35
2023-01-13T02:45:39.777Z,10.35
2023-01-13T02:46:39.746Z,10.35
2023-01-13T02:47:39.715Z,10.35
2023-01-13T02:48:39.733Z,10.35
2023-01-13T02:49:39.703Z,10.34
2023-01-13T02:50:39.691Z,10.36
2023-01-13T02:51:39.673Z,10.36
2023-01-13T02:52:39.770Z,10.35
2023-01-13T02:53:39.680Z,10.36
2023-01-13T02:54:39.662Z,10.35
2023-01-13T02:55:39.683Z,10.36
2023-01-13T02:56:39.660Z,10.35
2023-01-13T02:57:39.592Z,10.36
2023-01-13T02:58:39.621Z,10.35
2023-01-13T02:59:39.549Z,10.34
2023-01-13T03:00:39.483Z,10.34
2023-01-13T03:01:39.535Z,10.32
2023-01-13T03:02:39.480Z,10.34
2023-01-13T03:03:39.447Z,10.32
2023-01-13T03:04:39.422Z,10.32
2023-01-13T03:05:39.419Z,10.34
2023-01-13T03:06:39.408Z,10.34
2023-01-13T03:07:39.378Z,10.34
2023-01-13T03:08:39.388Z,10.34
2023-01-13T03:09:39.361Z,10.32
2023-01-13T03:10:39.350Z,10.34
2023-01-13T03:11:39.329Z,10.31
2023-01-13T03:12:39.343Z,10.32
2023-01-13T03:13:39.309Z,10.34
2023-01-13T03:14:39.297Z,10.34
2023-01-13T03:15:39.288Z,10.34
2023-01-13T03:16:39.386Z,10.34
2023-01-13T03:17:39.247Z,10.36
2023-01-13T03:18:39.255Z,10.36
2023-01-13T03:19:39.229Z,10.36
2023-01-13T03:20:39.221Z,10.35
2023-01-13T03:21:39.200Z,10.35
2023-01-13T03:22:39.187Z,10.34
2023-01-13T03:23:39.190Z,10.35
2023-01-13T03:24:39.242Z,10.34
2023-01-13T03:25:39.152Z,10.35
2023-01-13T03:26:39.136Z,10.35
2023-01-13T03:27:39.122Z,10.36
2023-01-13T03:28:39.119Z,10.38
2023-01-13T03:29:39.100Z,10.36
2023-01-13T03:30:39.120Z,10.38
2023-01-13T03:31:39.067Z,10.36
2023-01-13T03:32:39.071Z,10.36
2023-01-13T03:33:39.057Z,10.36
2023-01-13T03:34:39.050Z,10.35
2023-01-13T03:35:39.010Z,10.34
2023-01-13T03:36:39.013Z,10.36
2023-01-13T03:37:39.002Z,10.35
2023-01-13T03:38:38.986Z,10.34
2023-01-13T03:39:38.970Z,10.34
2023-01-13T03:40:38.959Z,10.34
2023-01-13T03:41:38.946Z,10.34
2023-01-13T03:42:38.924Z,10.32
2023-01-13T03:43:38.926Z,10.31
2023-01-13T03:44:38.905Z,10.32
2023-01-13T03:45:38.928Z,10.32
2023-01-13T03:46:38.879Z,10.32
2023-01-13T03:47:38.855Z,10.29
2023-01-13T03:48:38.856Z,10.31
2023-01-13T03:49:38.845Z,10.29
2023-01-13T03:50:38.825Z,10.31
2023-01-13T03:51:38.804Z,10.29
2023-01-13T03:52:38.795Z,10.28
2023-01-13T03:53:38.787Z,10.28
2023-01-13T03:54:38.766Z,10.26
2023-01-13T03:55:38.760Z,10.28
2023-01-13T03:56:38.767Z,10.28
2023-01-13T03:57:38.767Z,10.28
2023-01-13T03:58:38.725Z,10.29
2023-01-13T03:59:38.704Z,10.28
2023-01-13T04:00:38.689Z,10.28
2023-01-13T04:01:38.782Z,10.29
2023-01-13T04:02:38.684Z,10.29
2023-01-13T04:03:38.703Z,10.29
2023-01-13T04:04:38.629Z,10.31
2023-01-13T04:05:38.630Z,10.29
2023-01-13T04:06:38.613Z,10.29
2023-01-13T04:07:38.603Z,10.29
2023-01-13T04:08:38.594Z,10.29
2023-01-13T04:09:38.580Z,10.28
2023-01-13T04:10:38.574Z,10.28
2023-01-13T04:11:38.541Z,10.29
2023-01-13T04:12:38.538Z,10.28
2023-01-13T04:13:38.521Z,10.29
2023-01-13T04:14:38.501Z,10.31
2023-01-13T04:15:38.546Z,10.31
2023-01-13T04:16:38.474Z,10.31
2023-01-13T04:17:38.461Z,10.32
2023-01-13T04:18:38.499Z,10.31
2023-01-13T04:19:38.432Z,10.31
2023-01-13T04:20:38.429Z,10.31
2023-01-13T04:21:38.412Z,10.32
2023-01-13T04:22:38.394Z,10.31
2023-01-13T04:23:38.405Z,10.32
2023-01-13T04:24:38.386Z,10.31
2023-01-13T04:25:38.360Z,10.31
2023-01-13T04:26:38.354Z,10.31
2023-01-13T04:27:38.331Z,10.29
2023-01-13T04:28:38.329Z,10.28
2023-01-13T04:29:38.307Z,10.28
2023-01-13T04:30:38.364Z,10.28
2023-01-13T04:31:38.296Z,10.26
2023-01-13T04:32:38.260Z,10.26
2023-01-13T04:33:38.260Z,10.26
2023-01-13T04:34:38.246Z,10.24
2023-01-13T04:35:38.248Z,10.25
2023-01-13T04:36:38.217Z,10.24
2023-01-13T04:37:38.191Z,10.24
2023-01-13T04:38:38.201Z,10.24
2023-01-13T04:39:38.172Z,10.22
2023-01-13T04:40:38.166Z,10.20
2023-01-13T04:41:38.137Z,10.18
2023-01-13T04:42:38.125Z,10.17
2023-01-13T04:43:38.132Z,10.17
2023-01-13T04:44:38.107Z,10.17
2023-01-13T04:45:38.084Z,10.16
2023-01-13T04:46:38.126Z,10.16
2023-01-13T04:47:38.068Z,10.14
2023-01-13T04:48:38.067Z,10.16
2023-01-13T04:49:38.036Z,10.16
2023-01-13T04:50:38.043Z,10.16
2023-01-13T04:51:38.008Z,10.13
2023-01-13T04:52:38.019Z,10.11
2023-01-13T04:53:38.009Z,10.11
2023-01-13T04:54:37.967Z,10.11
2023-01-13T04:55:37.960Z,10.11
2023-01-13T04:56:37.960Z,10.13
2023-01-13T04:57:37.936Z,10.11
2023-01-13T04:58:37.935Z,10.11
2023-01-13T04:59:37.896Z,10.10
2023-01-13T05:00:37.900Z,10.09
2023-01-13T05:01:38.029Z,10.10
2023-01-13T05:02:37.874Z,10.09
2023-01-13T05:03:37.879Z,10.09
2023-01-13T05:04:37.874Z,10.06
2023-01-13T05:05:37.834Z,10.07
2023-01-13T05:06:37.827Z,10.04
2023-01-13T05:07:37.796Z,10.06
2023-01-13T05:08:37.812Z,10.04
2023-01-13T05:09:37.764Z,10.04
2023-01-13T05:10:37.806Z,10.02
2023-01-13T05:11:37.745Z,10.04
2023-01-13T05:12:37.733Z,10.01
2023-01-13T05:13:37.735Z,9.99
2023-01-13T05:14:37.714Z,10.01
2023-01-13T05:15:37.733Z,9.99
2023-01-13T05:16:37.685Z,9.98
2023-01-13T05:17:37.672Z,9.98
2023-01-13T05:18:37.683Z,9.95
2023-01-13T05:19:37.645Z,9.92
2023-01-13T05:20:37.656Z,9.91
2023-01-13T05:21:37.610Z,9.92
2023-01-13T05:22:37.607Z,9.92
2023-01-13T05:23:37.617Z,9.92
2023-01-13T05:24:37.579Z,9.92
2023-01-13T05:25:37.566Z,9.92
2023-01-13T05:26:37.557Z,9.93
2023-01-13T05:27:37.547Z,9.92
2023-01-13T05:28:37.543Z,9.92
2023-01-13T05:29:37.513Z,9.91
2023-01-13T05:30:37.501Z,9.92
2023-01-13T05:31:37.494Z,9.92
2023-01-13T05:32:37.479Z,9.91
2023-01-13T05:33:37.462Z,9.92
2023-01-13T05:34:37.453Z,9.89
2023-01-13T05:35:37.440Z,9.89
2023-01-13T05:36:37.433Z,9.88
2023-01-13T05:37:37.403Z,9.88
2023-01-13T05:38:37.418Z,9.88
2023-01-13T05:39:37.381Z,9.88
2023-01-13T05:40:37.369Z,9.85
2023-01-13T05:41:37.353Z,9.85
2023-01-13T05:42:37.350Z,9.83
2023-01-13T05:43:37.339Z,9.83
2023-01-13T05:44:37.322Z,9.81
2023-01-13T05:45:37.295Z,9.80
2023-01-13T05:46:37.363Z,9.81
2023-01-13T05:47:37.273Z,9.81
2023-01-13T05:48:37.281Z,9.81
2023-01-13T05:49:37.249Z,9.80
2023-01-13T05:50:37.264Z,9.80
2023-01-13T05:51:37.222Z,9.80
2023-01-13T05:52:37.207Z,9.80
2023-01-13T05:53:37.201Z,9.80
2023-01-13T05:54:37.190Z,9.78
2023-01-13T05:55:37.160Z,9.78
2023-01-13T05:56:37.149Z,9.78
2023-01-13T05:57:37.139Z,9.80
2023-01-13T05:58:37.146Z,9.81
2023-01-13T05:59:37.211Z,9.81
2023-01-13T06:00:37.114Z,9.80
2023-01-13T06:01:37.223Z,9.80
2023-01-13T06:02:37.107Z,9.81
2023-01-13T06:03:37.085Z,9.81
2023-01-13T06:04:37.099Z,9.80
2023-01-13T06:05:37.027Z,9.83
2023-01-13T06:06:37.027Z,9.81
2023-01-13T06:07:37.008Z,9.81
2023-01-13T06:08:39.461Z,9.80
2023-01-13T06:09:36.991Z,9.80
2023-01-13T06:10:37.114Z,9.81
2023-01-13T06:11:37.397Z,9.80
2023-01-13T06:12:36.961Z,9.81
2023-01-13T06:13:37.001Z,9.81
2023-01-13T06:14:37.743Z,9.83
2023-01-13T06:15:36.906Z,9.83
2023-01-13T06:16:36.935Z,9.83
2023-01-13T06:17:36.891Z,9.83
2023-01-13T06:18:36.876Z,9.83
2023-01-13T06:19:36.877Z,9.83
2023-01-13T06:20:36.843Z,9.83
2023-01-13T06:21:36.832Z,9.83
2023-01-13T06:22:36.812Z,9.83
2023-01-13T06:23:36.807Z,9.85
2023-01-13T06:24:36.795Z,9.85
2023-01-13T06:25:36.778Z,9.86
2023-01-13T06:26:36.755Z,9.85
2023-01-13T06:27:36.751Z,9.88
2023-01-13T06:28:36.750Z,9.88
2023-01-13T06:29:36.717Z,9.88
2023-01-13T06:30:36.754Z,9.91
2023-01-13T06:31:36.784Z,9.92
2023-01-13T06:32:36.784Z,9.95
2023-01-13T06:33:36.695Z,9.95
2023-01-13T06:34:36.654Z,9.98
2023-01-13T06:35:36.667Z,9.99
2023-01-13T06:36:36.623Z,10.01
2023-01-13T06:37:36.630Z,10.02
2023-01-13T06:38:36.628Z,10.02
2023-01-13T06:39:36.593Z,10.01
2023-01-13T06:40:36.576Z,10.01
2023-01-13T06:41:36.564Z,9.99
2023-01-13T06:42:36.555Z,9.99
2023-01-13T06:43:36.547Z,9.99
2023-01-13T06:44:36.514Z,9.99
2023-01-13T06:45:36.513Z,10.01
2023-01-13T06:46:36.563Z,9.99
2023-01-13T06:47:36.494Z,10.01
2023-01-13T06:48:36.477Z,9.99
2023-01-13T06:49:36.456Z,9.96
2023-01-13T06:50:36.445Z,9.96
2023-01-13T06:51:36.442Z,9.95
2023-01-13T06:52:36.414Z,9.93
2023-01-13T06:53:36.426Z,9.95
2023-01-13T06:54:36.388Z,9.93
2023-01-13T06:55:36.381Z,9.93
2023-01-13T06:56:36.371Z,9.95
2023-01-13T06:57:36.352Z,9.92
2023-01-13T06:58:36.351Z,9.92
2023-01-13T06:59:36.336Z,9.91
2023-01-13T07:00:36.339Z,9.92
2023-01-13T07:01:36.354Z,9.93
2023-01-13T07:02:36.330Z,9.95
2023-01-13T07:03:36.294Z,9.93
2023-01-13T07:04:36.273Z,9.95
2023-01-13T07:05:36.251Z,9.95
2023-01-13T07:06:36.232Z,9.95
2023-01-13T07:07:36.229Z,9.93
2023-01-13T07:08:36.220Z,9.95
2023-01-13T07:09:36.199Z,9.96
2023-01-13T07:10:36.180Z,9.96
2023-01-13T07:11:36.202Z,9.96
2023-01-13T07:12:36.154Z,9.96
2023-01-13T07:13:36.185Z,9.96
2023-01-13T07:14:36.120Z,9.98
2023-01-13T07:15:36.116Z,9.99
2023-01-13T07:16:36.174Z,10.01
2023-01-13T07:17:36.092Z,10.02
2023-01-13T07:18:36.114Z,10.02
2023-01-13T07:19:36.066Z,10.02
2023-01-13T07:20:36.039Z,10.04
2023-01-13T07:21:36.040Z,10.04
2023-01-13T07:22:36.032Z,10.02
2023-01-13T07:23:36.048Z,10.04
2023-01-13T07:24:35.999Z,10.02
2023-01-13T07:25:35.991Z,10.04
2023-01-13T07:26:35.970Z,10.04
2023-01-13T07:27:35.974Z,10.04
2023-01-13T07:28:35.960Z,10.06
2023-01-13T07:29:35.934Z,10.04
2023-01-13T07:30:35.921Z,10.06
2023-01-13T07:31:35.932Z,10.04
2023-01-13T07:32:35.921Z,10.04
2023-01-13T07:33:35.885Z,10.04
2023-01-13T07:34:35.859Z,10.01
2023-01-13T07:35:35.846Z,10.02
2023-01-13T07:36:35.836Z,10.01
2023-01-13T07:37:35.847Z,10.01
2023-01-13T07:38:35.816Z,10.01
2023-01-13T07:39:35.804Z,10.01
2023-01-13T07:40:35.790Z,9.99
2023-01-13T07:41:35.783Z,9.98
2023-01-13T07:42:35.759Z,9.96
2023-01-13T07:43:35.752Z,9.95
2023-01-13T07:44:35.737Z,9.93
2023-01-13T07:45:35.752Z,9.89
2023-01-13T07:46:35.727Z,9.81
2023-01-13T07:47:35.726Z,9.73
2023-01-13T07:48:35.690Z,9.65
2023-01-13T07:49:35.671Z,9.58
2023-01-13T07:50:35.654Z,9.52
2023-01-13T07:51:35.648Z,9.48
2023-01-13T07:52:35.635Z,9.44
2023-01-13T07:53:35.625Z,9.40
2023-01-13T07:54:40.928Z,9.35
2023-01-13T07:55:36.600Z,9.31
2023-01-13T07:56:35.575Z,9.26
2023-01-13T07:57:35.569Z,9.23
2023-01-13T07:58:35.567Z,9.23
2023-01-13T07:59:35.544Z,9.20
2023-01-13T08:00:35.515Z,9.19
2023-01-13T08:01:35.605Z,9.16
2023-01-13T08:02:35.546Z,9.15
2023-01-13T08:03:35.513Z,9.12
2023-01-13T08:04:35.470Z,9.10
2023-01-13T08:05:35.504Z,9.08
2023-01-13T08:06:35.433Z,9.06
2023-01-13T08:07:35.437Z,9.06
2023-01-13T08:08:35.428Z,9.03
2023-01-13T08:09:35.405Z,9.01
2023-01-13T08:10:35.381Z,9.00
2023-01-13T08:11:35.380Z,9.00
2023-01-13T08:12:35.372Z,8.97
2023-01-13T08:13:35.375Z,8.94
2023-01-13T08:14:35.348Z,8.93
2023-01-13T08:15:35.323Z,8.91
2023-01-13T08:16:35.366Z,8.89
2023-01-13T08:17:35.316Z,8.89
2023-01-13T08:18:35.291Z,8.88
2023-01-13T08:19:35.287Z,8.85
2023-01-13T08:20:35.270Z,8.83
2023-01-13T08:21:35.243Z,8.82
2023-01-13T08:22:35.228Z,8.80
2023-01-13T08:23:35.244Z,8.79
2023-01-13T08:24:35.200Z,8.79
2023-01-13T08:25:35.198Z,8.79
2023-01-13T08:26:35.271Z,8.78
2023-01-13T08:27:35.161Z,8.78
2023-01-13T08:28:35.171Z,8.78
2023-01-13T08:29:35.148Z,8.76
2023-01-13T08:30:35.190Z,8.73
2023-01-13T08:31:35.126Z,8.75
2023-01-13T08:32:35.391Z,8.73
2023-01-13T08:33:35.110Z,8.71
2023-01-13T08:34:35.069Z,8.71
2023-01-13T08:35:35.059Z,8.68
2023-01-13T08:36:35.071Z,8.65
2023-01-13T08:37:35.034Z,8.64
2023-01-13T08:38:35.031Z,8.61
2023-01-13T08:39:35.019Z,8.61
2023-01-13T08:40:34.992Z,8.60
2023-01-13T08:41:34.988Z,8.60
2023-01-13T08:42:34.957Z,8.60
2023-01-13T08:43:34.983Z,8.57
2023-01-13T08:44:34.942Z,8.57
2023-01-13T08:45:34.961Z,8.57
2023-01-13T08:46:34.996Z,8.57
2023-01-13T08:47:34.929Z,8.58
2023-01-13T08:48:35.017Z,8.57
2023-01-13T08:49:34.886Z,8.57
2023-01-13T08:50:34.855Z,8.57
2023-01-13T08:51:34.877Z,8.55
2023-01-13T08:52:34.839Z,8.55
2023-01-13T08:53:34.844Z,8.54
2023-01-13T08:54:35.074Z,8.54
2023-01-13T08:55:34.795Z,8.54
2023-01-13T08:56:35.673Z,8.54
2023-01-13T08:57:34.779Z,8.54
2023-01-13T08:58:34.769Z,8.52
2023-01-13T08:59:34.756Z,8.54
2023-01-13T09:00:34.738Z,8.52
2023-01-13T09:01:34.806Z,8.52
2023-01-13T09:02:34.705Z,8.52
2023-01-13T09:03:34.707Z,8.50
2023-01-13T09:04:34.797Z,8.52
2023-01-13T09:05:34.666Z,8.50
2023-01-13T09:06:34.647Z,8.50
2023-01-13T09:07:34.638Z,8.52
2023-01-13T09:08:34.644Z,8.52
2023-01-13T09:09:34.617Z,8.50
2023-01-13T09:10:34.594Z,8.52
2023-01-13T09:11:34.611Z,8.54
2023-01-13T09:12:34.578Z,8.52
2023-01-13T09:13:34.564Z,8.54
2023-01-13T09:14:34.557Z,8.54
2023-01-13T09:15:34.555Z,8.54
2023-01-13T09:16:34.524Z,8.54
2023-01-13T09:17:34.515Z,8.54
2023-01-13T09:18:34.505Z,8.55
2023-01-13T09:19:34.486Z,8.54
2023-01-13T09:20:34.465Z,8.55
2023-01-13T09:21:34.673Z,8.57
2023-01-13T09:22:34.433Z,8.55
2023-01-13T09:23:34.436Z,8.54
2023-01-13T09:24:34.415Z,8.54
2023-01-13T09:25:34.462Z,8.52
2023-01-13T09:26:34.381Z,8.52
2023-01-13T09:27:35.346Z,8.52
2023-01-13T09:28:34.375Z,8.52
2023-01-13T09:29:37.040Z,8.50
2023-01-13T09:30:34.338Z,8.50
2023-01-13T09:31:44.128Z,8.49
2023-01-13T09:32:35.726Z,8.49
2023-01-13T09:33:34.313Z,8.49
2023-01-13T09:34:34.367Z,8.52
2023-01-13T09:35:34.272Z,8.50
2023-01-13T09:36:34.248Z,8.52
2023-01-13T09:37:34.339Z,8.50
2023-01-13T09:38:34.245Z,8.52
2023-01-13T09:39:34.229Z,8.52
2023-01-13T09:40:34.200Z,8.52
2023-01-13T09:41:34.187Z,8.54
2023-01-13T09:42:34.171Z,8.54
2023-01-13T09:43:34.180Z,8.52
2023-01-13T09:44:34.151Z,8.52
2023-01-13T09:45:34.149Z,8.52
2023-01-13T09:46:34.143Z,8.52
2023-01-13T09:47:34.122Z,8.50
2023-01-13T09:48:34.098Z,8.50
2023-01-13T09:49:34.093Z,8.50
2023-01-13T09:50:34.093Z,8.50
2023-01-13T09:51:34.119Z,8.49
2023-01-13T09:52:34.049Z,8.49
2023-01-13T09:53:34.079Z,8.47
2023-01-13T09:54:34.031Z,8.47
2023-01-13T09:55:34.017Z,8.49
2023-01-13T09:56:34.045Z,8.46
2023-01-13T09:57:33.991Z,8.46
2023-01-13T09:58:33.981Z,8.46
2023-01-13T09:59:33.955Z,8.46
2023-01-13T10:00:33.938Z,8.46
2023-01-13T10:01:33.952Z,8.46
2023-01-13T10:02:33.919Z,8.47
2023-01-13T10:03:33.977Z,8.49
2023-01-13T10:04:33.903Z,8.47
2023-01-13T10:05:33.879Z,8.49
2023-01-13T10:06:33.860Z,8.47
2023-01-13T10:07:33.850Z,8.49
2023-01-13T10:08:33.847Z,8.49
2023-01-13T10:09:33.827Z,8.49
2023-01-13T10:10:33.806Z,8.47
2023-01-13T10:11:33.809Z,8.49
2023-01-13T10:12:33.779Z,8.52
2023-01-13T10:13:33.790Z,8.50
2023-01-13T10:14:33.757Z,8.52
2023-01-13T10:15:33.755Z,8.52
2023-01-13T10:16:33.747Z,8.54
2023-01-13T10:17:33.716Z,8.55
2023-01-13T10:18:33.714Z,8.57
2023-01-13T10:19:33.694Z,8.58
2023-01-13T10:20:33.690Z,8.60
2023-01-13T10:21:33.665Z,8.61
2023-01-13T10:22:33.669Z,8.61
2023-01-13T10:23:33.657Z,8.61
2023-01-13T10:24:33.615Z,8.63
2023-01-13T10:25:33.619Z,8.65
2023-01-13T10:26:33.597Z,8.67
2023-01-13T10:27:33.585Z,8.68
2023-01-13T10:28:33.583Z,8.73
2023-01-13T10:29:33.568Z,8.76
2023-01-13T10:30:33.571Z,8.76
2023-01-13T10:31:33.599Z,8.80
2023-01-13T10:32:33.533Z,8.82
2023-01-13T10:33:33.518Z,8.83
2023-01-13T10:34:33.493Z,8.83
2023-01-13T10:35:33.474Z,8.86
2023-01-13T10:36:33.479Z,8.89
2023-01-13T10:37:33.460Z,8.98
2023-01-13T10:38:33.463Z,8.98
2023-01-13T10:39:33.446Z,9.00
2023-01-13T10:40:33.413Z,9.01
2023-01-13T10:41:33.401Z,9.01
2023-01-13T10:42:33.393Z,9.04
2023-01-13T10:43:33.404Z,9.04
2023-01-13T10:44:33.373Z,9.06
2023-01-13T10:45:33.353Z,9.08
2023-01-13T10:46:33.405Z,9.10
2023-01-13T10:47:33.311Z,9.12
2023-01-13T10:48:33.360Z,9.13
2023-01-13T10:49:33.290Z,9.13
2023-01-13T10:50:33.282Z,9.15
2023-01-13T10:51:33.273Z,9.16
2023-01-13T10:52:33.357Z,9.17
2023-01-13T10:53:33.251Z,9.19
2023-01-13T10:54:33.231Z,9.20
2023-01-13T10:55:33.257Z,9.20
2023-01-13T10:56:33.215Z,9.20
2023-01-13T10:57:33.200Z,9.22
2023-01-13T10:58:33.197Z,9.22
2023-01-13T10:59:33.171Z,9.23
2023-01-13T11:00:33.158Z,9.24
2023-01-13T11:01:33.273Z,9.26
2023-01-13T11:02:33.176Z,9.26
2023-01-13T11:03:33.127Z,9.26
2023-01-13T11:04:33.141Z,9.24
2023-01-13T11:05:33.080Z,9.26
2023-01-13T11:06:33.092Z,9.27
2023-01-13T11:07:33.060Z,9.27
2023-01-13T11:08:33.058Z,9.30
2023-01-13T11:09:33.035Z,9.31
2023-01-13T11:10:33.021Z,9.34
2023-01-13T11:11:33.014Z,9.35
2023-01-13T11:12:32.998Z,9.35
2023-01-13T11:13:32.988Z,9.37
2023-01-13T11:14:32.973Z,9.38
2023-01-13T11:15:32.960Z,9.40
2023-01-13T11:16:33.019Z,9.40
2023-01-13T11:17:32.927Z,9.40
2023-01-13T11:18:32.937Z,9.41
2023-01-13T11:19:32.899Z,9.42
2023-01-13T11:20:32.917Z,9.45
2023-01-13T11:21:32.886Z,9.45
2023-01-13T11:22:32.871Z,9.48
2023-01-13T11:23:32.856Z,9.48
2023-01-13T11:24:32.848Z,9.48
2023-01-13T11:25:32.833Z,9.48
2023-01-13T11:26:32.810Z,9.48
2023-01-13T11:27:32.790Z,9.45
2023-01-13T11:28:32.820Z,9.45
2023-01-13T11:29:32.783Z,9.44
2023-01-13T11:30:32.764Z,9.45
2023-01-13T11:31:32.798Z,9.48
2023-01-13T11:32:32.741Z,9.52
2023-01-13T11:33:32.723Z,9.58
2023-01-13T11:34:32.718Z,9.65
2023-01-13T11:35:32.697Z,9.71
2023-01-13T11:36:32.694Z,9.77
2023-01-13T11:37:32.666Z,9.83
2023-01-13T11:38:32.771Z,9.91
2023-01-13T11:39:32.660Z,9.96
2023-01-13T11:40:32.625Z,10.02
2023-01-13T11:41:32.620Z,10.09
2023-01-13T11:42:32.607Z,10.14
2023-01-13T11:43:32.586Z,10.20
2023-01-13T11:44:32.586Z,10.24
2023-01-13T11:45:32.558Z,10.29
2023-01-13T11:46:32.612Z,10.32
2023-01-13T11:47:32.543Z,10.36
2023-01-13T11:48:32.540Z,10.43
2023-01-13T11:49:32.512Z,10.46
2023-01-13T11:50:32.499Z,10.51
2023-01-13T11:51:32.495Z,10.52
2023-01-13T11:52:32.494Z,10.57
2023-01-13T11:53:32.458Z,10.60
2023-01-13T11:54:32.433Z,10.63
2023-01-13T11:55:32.443Z,10.65
2023-01-13T11:56:32.430Z,10.68
2023-01-13T11:57:32.405Z,10.70
2023-01-13T11:58:38.742Z,10.73
2023-01-13T11:59:33.377Z,10.76
2023-01-13T12:00:32.371Z,10.78
2023-01-13T12:01:32.380Z,10.81
2023-01-13T12:02:32.394Z,10.83
2023-01-13T12:03:32.375Z,10.83
2023-01-13T12:04:32.323Z,10.86
2023-01-13T12:05:32.301Z,10.87
2023-01-13T12:06:32.293Z,10.87
2023-01-13T12:07:32.272Z,10.88
2023-01-13T12:08:32.271Z,10.90
2023-01-13T12:09:32.243Z,10.87
2023-01-13T12:10:32.228Z,10.88
2023-01-13T12:11:32.229Z,10.87
2023-01-13T12:12:32.205Z,10.87
2023-01-13T12:13:32.233Z,10.87
2023-01-13T12:14:32.203Z,10.88
2023-01-13T12:15:32.161Z,10.87
2023-01-13T12:16:32.234Z,10.88
2023-01-13T12:17:32.146Z,10.87
2023-01-13T12:18:32.140Z,10.87
2023-01-13T12:19:32.101Z,10.87
2023-01-13T12:20:32.101Z,10.86
2023-01-13T12:21:32.081Z,10.86
2023-01-13T12:22:32.074Z,10.84
2023-01-13T12:23:32.083Z,10.84
2023-01-13T12:24:32.071Z,10.83
2023-01-13T12:25:32.049Z,10.83
2023-01-13T12:26:32.039Z,10.81
2023-01-13T12:27:32.006Z,10.80
2023-01-13T12:28:32.032Z,10.78
2023-01-13T12:29:31.981Z,10.78
2023-01-13T12:30:31.974Z,10.78
2023-01-13T12:31:31.970Z,10.75
2023-01-13T12:32:31.946Z,10.75
2023-01-13T12:33:31.930Z,10.72
2023-01-13T12:34:31.910Z,10.72
2023-01-13T12:35:31.888Z,10.72
2023-01-13T12:36:31.890Z,10.72
2023-01-13T12:37:31.877Z,10.72
2023-01-13T12:38:34.313Z,10.72
2023-01-13T12:39:31.847Z,10.73
2023-01-13T12:40:31.840Z,10.72
2023-01-13T12:41:31.818Z,10.73
2023-01-13T12:42:31.807Z,10.73
2023-01-13T12:43:31.840Z,10.75
2023-01-13T12:44:31.779Z,10.76
2023-01-13T12:45:31.778Z,10.78
2023-01-13T12:46:31.758Z,10.78
2023-01-13T12:47:31.737Z,10.80
2023-01-13T12:48:31.736Z,10.81
2023-01-13T12:49:31.716Z,10.83
2023-01-13T12:50:31.701Z,10.83
2023-01-13T12:51:31.686Z,10.86
2023-01-13T12:52:31.676Z,10.87
2023-01-13T12:53:31.669Z,10.90
2023-01-13T12:54:31.656Z,10.91
2023-01-13T12:55:31.644Z,10.91
2023-01-13T12:56:31.615Z,10.94
2023-01-13T12:57:31.620Z,10.93
2023-01-13T12:58:31.610Z,10.94
2023-01-13T12:59:31.585Z,10.94
2023-01-13T13:00:31.578Z,10.94
2023-01-13T13:01:31.706Z,10.93
2023-01-13T13:02:31.630Z,10.91
2023-01-13T13:03:31.535Z,10.93
2023-01-13T13:04:31.516Z,10.91
2023-01-13T13:05:31.511Z,10.90
2023-01-13T13:06:31.499Z,10.88